Time;durP1;ratioP1;P1;durP2;ratioP2;P2;SDS_P1;SDS_P2;PMS_P1;PMS_P2;Temp;Humidity;BMP_temperature;BMP_pressure;BME280_temperature;BME280_humidity;BME280_pressure;Samples;Min_cycle;Max_cycle;Signal;HPM_P1;HPM_P2
2023/05/07 00:00:29;;;;;;;29.40;15.07;;;;;;;8.40;100.00;92920.34;2508479;23;20003;-84
2023/05/07 00:01:39;;;;;;;26.38;12.23;;;;;;;8.43;100.00;92927.53;2519763;23;20002;-85
2023/05/07 00:02:41;;;;;;;24.98;11.35;;;;;;;8.53;100.00;92923.94;2508567;23;20441;-85
2023/05/07 00:03:45;;;;;;;21.38;10.35;;;;;;;8.52;100.00;92921.69;2520750;23;20014;-85
2023/05/07 00:04:46;;;;;;;23.20;10.40;;;;;;;8.46;100.00;92929.38;2520996;23;20011;-84
2023/05/07 00:05:50;;;;;;;20.98;10.73;;;;;;;8.41;100.00;92926.44;2520661;23;20010;-87
2023/05/07 00:06:51;;;;;;;24.52;11.02;;;;;;;8.43;100.00;92927.53;2520609;23;20030;-85
2023/05/07 00:07:58;;;;;;;18.70;10.65;;;;;;;8.38;100.00;92927.25;2509475;23;20046;-86
2023/05/07 00:09:04;;;;;;;30.08;13.43;;;;;;;8.47;100.00;92930.91;2522979;23;20006;-84
2023/05/07 00:10:06;;;;;;;35.72;16.58;;;;;;;8.41;100.00;92929.84;2521109;23;20393;-83
2023/05/07 00:11:07;;;;;;;42.35;20.58;;;;;;;8.35;100.00;92928.03;2517277;23;20003;-82
2023/05/07 00:12:12;;;;;;;44.92;22.55;;;;;;;8.29;100.00;92920.50;2510208;23;20011;-85
2023/05/07 00:13:15;;;;;;;56.60;25.52;;;;;;;8.33;100.00;92918.53;2517461;23;20003;-84
2023/05/07 00:14:18;;;;;;;58.83;22.80;;;;;;;8.28;100.00;92919.00;2522973;23;20006;-83
2023/05/07 00:15:21;;;;;;;43.28;20.10;;;;;;;8.36;100.00;92922.28;2511415;23;20329;-82
2023/05/07 00:16:22;;;;;;;43.63;20.50;;;;;;;8.34;100.00;92924.63;2499427;23;20007;-83
2023/05/07 00:17:23;;;;;;;47.17;21.08;;;;;;;8.29;100.00;92920.50;2498647;23;20007;-85
2023/05/07 00:18:25;;;;;;;39.75;18.92;;;;;;;8.26;100.00;92925.91;2522150;23;20006;-84
2023/05/07 00:19:27;;;;;;;37.10;18.67;;;;;;;8.26;100.00;92923.22;2521449;23;20062;-85
2023/05/07 00:20:29;;;;;;;39.35;16.27;;;;;;;8.24;100.00;92923.63;2521060;23;20061;-84
2023/05/07 00:21:32;;;;;;;35.10;14.50;;;;;;;8.25;100.00;92919.03;2521462;23;20346;-84
2023/05/07 00:22:34;;;;;;;27.73;13.80;;;;;;;8.21;100.00;92918.34;2521470;23;20003;-84
2023/05/07 00:23:35;;;;;;;18.50;10.85;;;;;;;8.24;100.00;92922.88;2521136;23;20085;-84
2023/05/07 00:24:36;;;;;;;21.58;10.20;;;;;;;8.19;100.00;92910.78;2520773;23;20010;-84
2023/05/07 00:25:39;;;;;;;19.05;9.43;;;;;;;8.25;100.00;92917.16;2520056;23;20006;-83
2023/05/07 00:26:41;;;;;;;19.10;9.35;;;;;;;8.15;100.00;92926.06;2509245;23;20492;-86
2023/05/07 00:27:47;;;;;;;15.43;9.20;;;;;;;8.17;100.00;92928.31;2511087;23;20141;-84
2023/05/07 00:28:48;;;;;;;14.57;8.00;;;;;;;8.20;100.00;92933.56;2520410;23;20014;-85
2023/05/07 00:29:50;;;;;;;11.68;7.75;;;;;;;8.22;100.00;92920.63;2509394;23;20007;-83
2023/05/07 00:30:51;;;;;;;14.27;8.40;;;;;;;8.17;100.00;92921.09;2509539;23;20031;-84
2023/05/07 00:31:54;;;;;;;13.43;7.78;;;;;;;8.16;100.00;92922.22;2532639;23;20040;-86
2023/05/07 00:32:55;;;;;;;14.40;7.30;;;;;;;8.18;100.00;92919.19;2520393;23;20015;-84
2023/05/07 00:33:56;;;;;;;12.70;7.25;;;;;;;8.18;100.00;92919.19;2511450;23;20014;-84
2023/05/07 00:34:57;;;;;;;14.30;7.72;;;;;;;8.19;100.00;92910.03;2519905;23;20009;-87
2023/05/07 00:36:00;;;;;;;11.65;7.35;;;;;;;8.17;100.00;92915.00;2532044;23;20005;-85
2023/05/07 00:37:02;;;;;;;15.00;7.03;;;;;;;8.24;100.00;92909.56;2532669;23;20010;-84
2023/05/07 00:38:03;;;;;;;13.98;7.35;;;;;;;8.23;100.00;92914.13;2520606;23;20033;-84
2023/05/07 00:39:04;;;;;;;11.75;7.43;;;;;;;8.19;100.00;92907.38;2520075;23;20441;-86
2023/05/07 00:40:07;;;;;;;8.93;7.25;;;;;;;8.16;100.00;92910.81;2520644;23;20010;-86
2023/05/07 00:41:08;;;;;;;9.70;6.65;;;;;;;8.16;100.00;92914.25;2532450;23;20009;-83
2023/05/07 00:42:09;;;;;;;9.88;7.05;;;;;;;8.11;100.00;92912.03;2532826;23;20006;-86
2023/05/07 00:43:10;;;;;;;14.00;7.63;;;;;;;8.14;100.00;92910.50;2532931;23;20009;-84
2023/05/07 00:44:11;;;;;;;12.52;7.97;;;;;;;8.04;100.00;92912.91;2521580;23;20488;-85
2023/05/07 00:45:20;;;;;;;11.60;7.78;;;;;;;8.05;100.00;92911.00;2496899;23;20014;-84
2023/05/07 00:46:33;;;;;;;19.73;8.45;;;;;;;8.10;100.00;92920.44;2523397;23;20007;-84
2023/05/07 00:47:35;;;;;;;15.40;8.95;;;;;;;8.07;100.00;92919.31;2532135;23;20026;-86
2023/05/07 00:48:36;;;;;;;20.63;8.80;;;;;;;8.10;100.00;92909.78;2532523;23;20395;-83
2023/05/07 00:49:42;;;;;;;27.27;11.13;;;;;;;8.11;100.00;92909.38;2520521;23;20002;-85
2023/05/07 00:50:45;;;;;;;22.70;10.82;;;;;;;8.14;100.00;92907.81;2520750;23;20053;-85
2023/05/07 00:51:51;;;;;;;30.17;9.52;;;;;;;8.09;100.00;92911.72;2509386;23;20057;-85
2023/05/07 00:52:59;;;;;;;20.75;9.75;;;;;;;8.08;100.00;92910.97;2521027;23;20069;-85
2023/05/07 00:54:02;;;;;;;27.48;9.20;;;;;;;8.11;100.00;92906.72;2519865;23;20057;-86
2023/05/07 00:55:06;;;;;;;21.10;8.57;;;;;;;8.15;100.00;92906.66;2497139;23;20398;-85
2023/05/07 00:56:08;;;;;;;24.48;9.98;;;;;;;8.10;100.00;92902.56;2508536;23;20034;-85
2023/05/07 00:57:13;;;;;;;25.65;8.43;;;;;;;8.12;100.00;92905.59;2507873;23;20007;-83
2023/05/07 00:58:16;;;;;;;30.10;9.93;;;;;;;8.11;100.00;92900.63;2521169;23;20007;-84
2023/05/07 00:59:24;;;;;;;22.42;8.65;;;;;;;8.04;100.00;92899.59;2520097;23;20010;-84
2023/05/07 01:00:33;;;;;;;24.77;8.55;;;;;;;8.08;100.00;92894.97;2510652;23;20007;-84
2023/05/07 01:01:36;;;;;;;26.73;9.18;;;;;;;8.10;100.00;92899.16;2508852;23;20007;-84
2023/05/07 01:02:39;;;;;;;23.67;8.85;;;;;;;8.10;100.00;92899.88;2520395;23;20030;-84
2023/05/07 01:03:40;;;;;;;31.80;10.15;;;;;;;8.11;100.00;92896.06;2531379;23;20056;-86
2023/05/07 01:04:41;;;;;;;33.00;9.45;;;;;;;8.07;100.00;92896.13;2531872;23;20006;-86
2023/05/07 01:05:49;;;;;;;30.48;9.93;;;;;;;8.10;100.00;92902.56;2519833;23;20014;-83
2023/05/07 01:06:57;;;;;;;;;;;;;;;8.15;100.00;92899.44;2512335;23;20082;-83
2023/05/07 01:08:01;;;;;;;29.52;10.35;;;;;;;8.16;100.00;92895.59;2520605;23;19905;-84
2023/05/07 01:09:04;;;;;;;17.20;9.73;;;;;;;8.18;100.00;92895.97;2508741;23;20071;-84
2023/05/07 01:10:11;;;;;;;16.87;10.17;;;;;;;8.13;100.00;92901.00;2511082;23;20116;-84
2023/05/07 01:11:30;;;;;;;19.17;10.05;;;;;;;8.11;100.00;92903.31;2511822;23;20510;-85
2023/05/07 01:12:32;;;;;;;18.80;10.48;;;;;;;8.07;100.00;92898.78;2512341;23;20003;-84
2023/05/07 01:13:36;;;;;;;15.38;9.18;;;;;;;8.14;100.00;92899.84;2520761;23;20010;-84
2023/05/07 01:14:40;;;;;;;16.90;8.80;;;;;;;8.11;100.00;92897.97;2522414;23;20081;-85
2023/05/07 01:15:43;;;;;;;14.05;8.15;;;;;;;8.12;100.00;92894.94;2520467;23;20009;-84
2023/05/07 01:16:51;;;;;;;14.80;8.13;;;;;;;8.10;100.00;92891.16;2508608;23;20213;-86
2023/05/07 01:17:53;;;;;;;20.60;8.55;;;;;;;8.17;100.00;92893.72;2511132;23;20547;-85
2023/05/07 01:18:54;;;;;;;13.35;7.93;;;;;;;8.11;100.00;92896.06;2519457;23;20394;-86
2023/05/07 01:19:55;;;;;;;11.48;7.65;;;;;;;8.12;100.00;92894.16;2496323;23;20324;-85
2023/05/07 01:20:59;;;;;;;14.55;7.53;;;;;;;8.14;100.00;92892.59;2507862;23;20013;-84
2023/05/07 01:22:12;;;;;;;16.23;7.43;;;;;;;8.10;100.00;92899.88;2520498;23;20426;-83
2023/05/07 01:23:22;;;;;;;9.60;7.38;;;;;;;8.08;100.00;92896.91;2511583;23;20010;-84
2023/05/07 01:24:32;;;;;;;13.30;7.32;;;;;;;8.11;100.00;92898.72;2510078;23;20019;-84
2023/05/07 01:25:38;;;;;;;10.10;7.05;;;;;;;8.08;100.00;92894.97;2533935;23;20017;-86
2023/05/07 01:26:44;;;;;;;13.15;7.40;;;;;;;8.04;100.00;92894.28;2519874;23;20411;-84
2023/05/07 01:27:49;;;;;;;15.38;6.65;;;;;;;8.03;100.00;92898.09;2509246;23;20131;-85
2023/05/07 01:28:58;;;;;;;9.00;7.20;;;;;;;8.01;100.00;92894.34;2507145;23;20006;-85
2023/05/07 01:30:05;;;;;;;10.55;7.75;;;;;;;8.00;100.00;92898.16;2521724;23;20229;-84
2023/05/07 01:31:19;;;;;;;10.68;6.90;;;;;;;8.01;100.00;92897.75;2510163;23;20010;-86
2023/05/07 01:32:27;;;;;;;19.15;7.63;;;;;;;7.97;100.00;92894.38;2510913;23;20003;-84
2023/05/07 01:33:31;;;;;;;12.25;6.82;;;;;;;7.98;100.00;92889.81;2521120;23;20456;-84
2023/05/07 01:34:41;;;;;;;11.25;6.80;;;;;;;7.99;100.00;92897.41;2520240;23;20014;-84
2023/05/07 01:35:53;;;;;;;11.93;6.50;;;;;;;7.99;100.00;92892.09;2520701;23;20010;-85
2023/05/07 01:37:00;;;;;;;14.63;6.18;;;;;;;8.00;100.00;92882.94;2543875;23;20088;-83
2023/05/07 01:38:04;;;;;;;12.15;7.25;;;;;;;8.07;100.00;92890.78;2533518;23;20016;-84
2023/05/07 01:39:13;;;;;;;12.27;7.15;;;;;;;8.02;100.00;92885.94;2529949;23;20013;-84
2023/05/07 01:40:41;;;;;;;13.07;6.85;;;;;;;8.02;100.00;92885.94;2519624;23;20066;-84
2023/05/07 01:42:08;;;;;;;15.05;7.32;;;;;;;7.99;100.00;92884.09;2516851;23;20013;-84
2023/05/07 01:43:12;;;;;;;15.68;7.00;;;;;;;7.90;100.00;92888.41;2505870;23;20076;-83
2023/05/07 01:44:15;;;;;;;12.77;6.85;;;;;;;7.86;100.00;92888.50;2512107;23;20058;-83
2023/05/07 01:45:16;;;;;;;9.13;6.93;;;;;;;7.85;100.00;92886.97;2521194;23;20256;-85
2023/05/07 01:46:17;;;;;;;11.88;6.55;;;;;;;7.79;100.00;92877.94;2520500;23;20122;-84
2023/05/07 01:47:20;;;;;;;10.60;6.70;;;;;;;7.82;100.00;92877.91;2510056;23;20110;-84
2023/05/07 01:48:24;;;;;;;12.70;6.88;;;;;;;7.84;100.00;92874.81;2540068;23;20014;-84
2023/05/07 01:49:27;;;;;;;13.93;7.22;;;;;;;7.84;100.00;92882.81;2531816;23;20017;-85
2023/05/07 01:50:31;;;;;;;17.10;7.05;;;;;;;7.79;100.00;92881.34;2507987;23;20017;-84
2023/05/07 01:51:51;;;;;;;17.40;6.70;;;;;;;7.82;100.00;92885.88;2517059;23;20076;-85
2023/05/07 01:52:53;;;;;;;9.30;6.57;;;;;;;7.82;100.00;92885.13;2511887;23;20010;-84
2023/05/07 01:53:55;;;;;;;10.38;6.65;;;;;;;7.90;100.00;92877.78;2519744;23;20026;-84
2023/05/07 01:54:56;;;;;;;9.55;6.40;;;;;;;7.93;100.00;92882.28;2519961;23;20054;-84
2023/05/07 01:55:57;;;;;;;10.23;6.75;;;;;;;7.94;100.00;92878.47;2519635;23;20146;-85
2023/05/07 01:56:58;;;;;;;9.70;7.45;;;;;;;7.91;100.00;92880.03;2520189;23;20002;-84
2023/05/07 01:57:59;;;;;;;9.43;7.30;;;;;;;7.80;100.00;92888.19;2520259;23;20002;-86
2023/05/07 01:59:00;;;;;;;10.70;6.90;;;;;;;7.79;100.00;92888.59;2532615;23;20089;-84
2023/05/07 02:00:02;;;;;;;11.68;7.15;;;;;;;7.83;100.00;92873.31;2532714;23;20067;-84
2023/05/07 02:01:04;;;;;;;9.52;6.80;;;;;;;7.83;100.00;92882.06;2520848;23;20452;-87
2023/05/07 02:02:08;;;;;;;10.50;6.50;;;;;;;7.80;100.00;92882.09;2508897;23;20334;-84
2023/05/07 02:03:09;;;;;;;10.07;6.50;;;;;;;7.74;100.00;92884.47;2508789;23;20506;-83
2023/05/07 02:04:13;;;;;;;8.68;6.70;;;;;;;7.72;100.00;92888.69;2508623;23;20010;-84
2023/05/07 02:05:15;;;;;;;11.13;6.43;;;;;;;7.71;100.00;92879.19;2520314;23;20097;-84
2023/05/07 02:06:37;;;;;;;8.98;7.00;;;;;;;7.63;100.00;92886.53;2531987;23;20002;-84
2023/05/07 02:07:40;;;;;;;10.13;6.70;;;;;;;7.58;100.00;92887.72;2521707;23;20064;-83
2023/05/07 02:08:41;;;;;;;8.52;6.30;;;;;;;7.61;100.00;92880.88;2508049;23;20433;-87
2023/05/07 02:09:42;;;;;;;11.80;6.80;;;;;;;7.61;100.00;92882.78;2508302;23;20021;-84
2023/05/07 02:10:43;;;;;;;15.95;6.90;;;;;;;7.60;100.00;92887.34;2496418;23;20007;-85
2023/05/07 02:11:54;;;;;;;10.18;7.07;;;;;;;7.54;100.00;92891.59;2509163;23;20121;-85
2023/05/07 02:12:55;;;;;;;11.45;6.47;;;;;;;7.61;100.00;92877.47;2521627;23;20118;-85
2023/05/07 02:13:56;;;;;;;12.23;6.60;;;;;;;7.61;100.00;92883.53;2507985;23;20007;-84
2023/05/07 02:14:58;;;;;;;10.00;7.63;;;;;;;7.58;100.00;92886.97;2508223;23;20010;-85
2023/05/07 02:15:59;;;;;;;9.98;6.25;;;;;;;7.57;100.00;92888.91;2519687;23;20002;-86
2023/05/07 02:17:05;;;;;;;19.95;7.88;;;;;;;7.60;100.00;92879.38;2508304;23;20066;-84
2023/05/07 02:18:08;;;;;;;12.25;7.32;;;;;;;7.62;100.00;92881.63;2510808;23;20436;-84
2023/05/07 03:08:23;;;;;;;7.28;5.70;;;;;;;6.98;100.00;92894.59;2368707;24;20012;-76
2023/05/07 03:09:53;;;;;;;7.65;5.32;;;;;;;6.86;100.00;92887.16;2405645;24;20497;-75
2023/05/07 03:17:05;;;;;;;10.95;6.03;;;;;;;6.82;100.00;92875.81;2416622;24;20018;-78
2023/05/07 03:21:34;;;;;;;6.60;5.20;;;;;;;6.71;100.00;92869.84;2398718;24;20457;-75
2023/05/07 03:22:35;;;;;;;9.65;5.43;;;;;;;6.70;100.00;92876.31;2499962;23;20021;-76
2023/05/07 03:23:36;;;;;;;9.50;5.57;;;;;;;6.66;100.00;92875.59;2508615;23;20013;-76
2023/05/07 03:24:37;;;;;;;9.93;5.60;;;;;;;6.66;100.00;92870.28;2521365;23;20458;-76
2023/05/07 03:25:47;;;;;;;7.72;5.63;;;;;;;6.68;100.00;92873.31;2533975;23;20426;-78
2023/05/07 03:26:57;;;;;;;6.68;5.50;;;;;;;6.72;100.00;92871.38;2538992;23;20005;-77
2023/05/07 03:28:00;;;;;;;7.72;5.75;;;;;;;6.74;100.00;92869.06;2560712;23;20007;-77
2023/05/07 03:29:45;;;;;;;11.25;6.18;;;;;;;6.71;100.00;92864.53;2558003;23;20004;-76
2023/05/07 03:31:12;;;;;;;12.02;5.45;;;;;;;6.72;100.00;92866.81;2544541;23;20006;-76
2023/05/07 03:42:03;;;;;;;17.95;4.80;;;;;;;6.64;100.00;92881.31;2530170;23;20025;-77
2023/05/07 03:53:20;;;;;;;8.63;4.30;;;;;;;6.42;100.00;92878.13;2414203;24;20461;-75
2023/05/07 03:54:23;;;;;;;17.42;4.40;;;;;;;6.35;100.00;92886.16;2403282;24;20102;-76
2023/05/07 03:55:27;;;;;;;11.73;4.47;;;;;;;6.37;100.00;92886.53;2392943;24;20027;-77
2023/05/07 03:56:47;;;;;;;8.93;4.22;;;;;;;6.41;100.00;92887.25;2420940;24;20020;-77
2023/05/07 03:57:59;;;;;;;8.10;4.78;;;;;;;6.43;100.00;92894.81;2475170;23;20019;-76
2023/05/07 03:59:12;;;;;;;;;;;;;;;;;;;;;
2023/05/07 04:27:50;;;;;;;8.25;3.42;;;;;;;6.52;100.00;92908.38;5272196;21;21444;-84
2023/05/07 04:28:51;;;;;;;5.30;3.70;;;;;;;6.53;100.00;92912.53;2597762;22;20011;-84
2023/05/07 04:29:55;;;;;;;6.15;4.13;;;;;;;6.50;100.00;92910.69;2572448;22;20015;-84
2023/05/07 04:31:16;;;;;;;4.55;3.88;;;;;;;6.47;100.00;92908.81;2581831;22;20081;-83
2023/05/07 04:32:31;;;;;;;8.90;4.13;;;;;;;6.53;100.00;92910.63;2594798;22;20469;-84
2023/05/07 04:33:53;;;;;;;8.55;4.22;;;;;;;6.48;100.00;92903.09;2601225;22;20003;-82
2023/05/07 04:35:01;;;;;;;13.40;4.30;;;;;;;6.42;100.00;92903.94;2602343;22;20011;-85
2023/05/07 04:36:23;;;;;;;7.63;4.47;;;;;;;6.44;100.00;92902.38;2603276;22;20507;-83
2023/05/07 04:37:44;;;;;;;6.13;3.53;;;;;;;6.45;100.00;92909.22;2606928;22;19999;-85
2023/05/07 04:38:53;;;;;;;8.52;4.55;;;;;;;6.41;100.00;92908.50;2597785;22;20008;-83
2023/05/07 04:40:14;;;;;;;6.70;4.30;;;;;;;6.46;100.00;92913.38;2595171;22;20067;-83
2023/05/07 04:41:16;;;;;;;6.60;4.20;;;;;;;6.49;100.00;92909.16;2589426;22;20426;-82
2023/05/07 04:42:18;;;;;;;6.18;4.22;;;;;;;6.55;100.00;92912.91;2586790;22;20035;-82
2023/05/07 04:43:35;;;;;;;5.43;3.58;;;;;;;6.52;100.00;92914.44;2601896;22;20079;-84
2023/05/07 04:44:41;;;;;;;7.63;4.03;;;;;;;6.54;100.00;92916.69;2587659;22;20038;-84
2023/05/07 04:46:02;;;;;;;7.07;3.70;;;;;;;6.60;100.00;92917.78;2607446;22;20052;-84
2023/05/07 04:47:03;;;;;;;8.75;3.90;;;;;;;6.62;100.00;92912.06;2605643;22;20004;-82
2023/05/07 04:48:14;;;;;;;8.27;4.13;;;;;;;6.64;100.00;92915.09;2580516;22;20011;-81
2023/05/07 04:49:34;;;;;;;;;;;;;;;6.68;100.00;92907.84;2601739;22;20010;-84
2023/05/07 04:50:55;;;;;;;;;;;;;;;6.68;100.00;92907.84;2609224;22;19903;-83
2023/05/07 04:52:15;;;;;;;;;;;;;;;6.65;100.00;92905.97;2613347;22;19906;-82
2023/05/07 04:53:44;;;;;;;10.82;3.72;;;;;;;6.63;100.00;92906.38;2620525;22;19903;-84
2023/05/07 04:54:46;;;;;;;6.00;3.75;;;;;;;6.73;100.00;92908.16;2598734;22;20049;-83
2023/05/07 04:55:55;;;;;;;7.85;3.70;;;;;;;6.76;100.00;92909.25;2585241;22;20023;-84
2023/05/07 04:57:14;;;;;;;5.07;3.40;;;;;;;6.77;100.00;92900.91;2580111;22;20004;-82
2023/05/07 04:58:16;;;;;;;7.28;3.80;;;;;;;6.72;100.00;92909.31;2578976;22;20001;-84
2023/05/07 04:59:18;;;;;;;3.85;3.47;;;;;;;6.78;100.00;92912.28;2573804;22;20465;-83
2023/05/07 05:00:27;;;;;;;5.15;3.65;;;;;;;6.79;100.00;92906.56;2573044;22;20004;-83
2023/05/07 05:01:28;;;;;;;4.32;3.92;;;;;;;6.85;100.00;92911.44;2599381;22;20008;-82
2023/05/07 05:02:37;;;;;;;7.03;4.20;;;;;;;6.90;100.00;92909.13;2585652;22;20130;-83
2023/05/07 05:03:39;;;;;;;5.10;3.60;;;;;;;6.94;100.00;92912.50;2610648;22;20006;-83
2023/05/07 05:04:40;;;;;;;5.78;3.67;;;;;;;7.02;100.00;92915.78;2597448;22;20041;-84
2023/05/07 05:05:44;;;;;;;4.78;3.58;;;;;;;7.09;100.00;92922.94;2572459;22;20004;-84
2023/05/07 05:06:45;;;;;;;6.28;4.25;;;;;;;7.16;100.00;92914.91;2573536;22;20004;-83
2023/05/07 05:07:46;;;;;;;5.90;3.83;;;;;;;7.18;100.00;92920.56;2576928;22;20011;-82
2023/05/07 05:08:48;;;;;;;3.92;3.63;;;;;;;7.27;100.00;92926.91;2598079;22;20122;-82
2023/05/07 05:09:58;;;;;;;6.78;4.05;;;;;;;7.29;100.00;92918.53;2600393;22;20023;-83
2023/05/07 05:11:02;;;;;;;7.63;3.75;;;;;;;7.35;100.00;92919.59;2599439;22;20055;-84
2023/05/07 05:12:03;;;;;;;7.85;3.45;;;;;;;7.43;100.00;92917.59;2587164;22;20104;-85
2023/05/07 05:13:04;;;;;;;5.20;3.75;;;;;;;7.48;100.00;92923.22;2585252;22;20035;-83
2023/05/07 05:14:09;;;;;;;5.10;3.58;;;;;;;7.55;100.00;92912.50;2584956;22;20051;-85
2023/05/07 05:15:16;;;;;;;6.03;3.80;;;;;;;7.62;100.00;92910.88;2586255;22;20023;-85
2023/05/07 05:16:25;;;;;;;5.50;3.60;;;;;;;7.68;100.00;92922.56;2581956;22;20005;-83
2023/05/07 05:17:36;;;;;;;4.50;3.25;;;;;;;7.75;100.00;92919.81;2598297;22;20338;-83
2023/05/07 05:18:47;;;;;;;5.82;3.40;;;;;;;7.85;100.00;92918.91;2589160;22;20440;-82
2023/05/07 05:19:56;;;;;;;4.13;3.70;;;;;;;7.85;100.00;92924.22;2599877;22;20015;-84
2023/05/07 05:21:06;;;;;;;6.22;4.18;;;;;;;7.93;100.00;92919.56;2588866;22;20549;-86
2023/05/07 05:22:10;;;;;;;4.32;3.92;;;;;;;7.99;100.00;92912.59;2602846;22;20078;-86
2023/05/07 05:23:22;;;;;;;6.85;4.50;;;;;;;8.08;100.00;92920.84;2600446;22;20086;-86
2023/05/07 05:24:26;;;;;;;8.18;3.70;;;;;;;8.29;100.00;92922.41;2601091;22;20007;-84
2023/05/07 05:25:34;;;;;;;5.60;4.15;;;;;;;8.37;100.00;92909.75;2602709;22;20068;-85
2023/05/07 05:26:46;;;;;;;5.20;4.28;;;;;;;8.39;100.00;92913.53;2609456;22;20012;-83
2023/05/07 05:27:53;;;;;;;6.65;3.92;;;;;;;8.49;100.00;92920.59;2605742;22;20019;-83
2023/05/07 05:28:57;;;;;;;5.32;4.20;;;;;;;8.49;100.00;92917.91;2595145;22;20056;-83
2023/05/07 05:30:02;;;;;;;5.25;4.10;;;;;;;8.58;100.00;92914.72;2589395;22;20004;-85
2023/05/07 05:31:07;;;;;;;5.32;4.13;;;;;;;8.71;100.00;92917.56;2603094;22;20007;-83
2023/05/07 05:32:11;;;;;;;4.97;4.47;;;;;;;8.75;100.00;92923.56;2611714;22;20091;-84
2023/05/07 05:33:18;;;;;;;5.57;4.15;;;;;;;8.97;100.00;92918.59;2598615;22;20130;-82
2023/05/07 05:34:26;;;;;;;6.75;4.28;;;;;;;8.99;100.00;92914.34;2599340;22;20087;-83
2023/05/07 05:35:32;;;;;;;9.10;4.28;;;;;;;9.14;100.00;92916.75;2598428;22;20001;-83
2023/05/07 05:36:42;;;;;;;4.38;3.97;;;;;;;9.17;100.00;92918.59;2598814;22;20003;-83
2023/05/07 05:37:49;;;;;;;5.00;3.92;;;;;;;9.10;100.00;92918.75;2598149;22;20089;-83
2023/05/07 05:38:53;;;;;;;6.95;4.10;;;;;;;9.16;100.00;92917.84;2587716;22;20064;-85
2023/05/07 05:39:59;;;;;;;5.22;3.65;;;;;;;9.16;100.00;92909.84;2597797;22;20014;-84
2023/05/07 05:41:04;;;;;;;7.22;3.95;;;;;;;9.13;100.00;92910.69;2598596;22;20000;-84
2023/05/07 05:42:05;;;;;;;4.32;3.92;;;;;;;9.20;100.00;92907.09;2610385;22;20010;-84
2023/05/07 05:43:09;;;;;;;5.28;3.92;;;;;;;9.16;100.00;92912.50;2596769;22;20095;-83
2023/05/07 05:44:15;;;;;;;5.15;3.65;;;;;;;9.19;100.00;92910.94;2584931;22;20043;-83
2023/05/07 05:45:23;;;;;;;5.28;3.40;;;;;;;9.26;100.00;92908.13;2585812;22;20004;-83
2023/05/07 05:46:24;;;;;;;4.38;3.53;;;;;;;9.39;100.00;92910.91;2587149;22;20000;-83
2023/05/07 05:47:35;;;;;;;6.10;3.30;;;;;;;9.32;100.00;92909.16;2596613;22;20099;-83
2023/05/07 05:48:41;;;;;;;3.83;3.53;;;;;;;9.41;100.00;92913.94;2589569;22;20015;-84
2023/05/07 05:49:54;;;;;;;5.68;3.53;;;;;;;9.42;100.00;92918.84;2599973;22;20027;-84
2023/05/07 05:51:04;;;;;;;4.63;3.47;;;;;;;9.50;100.00;92914.13;2588498;22;20000;-84
2023/05/07 05:52:14;;;;;;;4.72;3.22;;;;;;;9.51;100.00;92923.63;2601063;22;20003;-84
2023/05/07 05:53:40;;;;;;;;;;;;;;;9.57;100.00;92919.31;2610188;22;19999;-84
2023/05/07 05:54:49;;;;;;;6.15;3.28;;;;;;;9.77;100.00;92919.25;2594793;22;19903;-86
2023/05/07 05:55:55;;;;;;;3.60;3.30;;;;;;;9.79;100.00;92920.34;2587331;22;20083;-84
2023/05/07 05:57:11;;;;;;;4.07;3.60;;;;;;;9.85;100.00;92917.94;2599475;22;20007;-85
2023/05/07 05:58:20;;;;;;;5.30;3.40;;;;;;;9.89;100.00;92915.94;2598845;22;20377;-84
2023/05/07 05:59:58;;;;;;;6.43;4.10;;;;;;;9.90;100.00;92928.13;2586417;22;20008;-85
2023/05/07 06:01:13;;;;;;;6.00;3.63;;;;;;;10.08;100.00;92927.72;2586205;22;20007;-85
2023/05/07 06:02:19;;;;;;;5.28;3.60;;;;;;;10.14;100.00;92925.28;2590357;22;20007;-84
2023/05/07 06:03:20;;;;;;;11.15;8.30;;;;;;;10.12;100.00;92931.06;2608135;22;20007;-83
2023/05/07 06:04:42;;;;;;;11.15;7.75;;;;;;;10.11;100.00;92926.88;2611911;22;20007;-83
2023/05/07 06:05:48;;;;;;;6.72;4.50;;;;;;;10.18;100.00;92923.28;2602356;22;20616;-85
2023/05/07 06:07:17;;;;;;;5.78;4.22;;;;;;;10.33;100.00;92935.94;2585570;22;20483;-84
2023/05/07 06:08:24;;;;;;;6.47;5.70;;;;;;;10.38;100.00;92925.91;2594599;22;20088;-84
2023/05/07 06:10:10;;;;;;;6.03;5.18;;;;;;;10.50;100.00;92935.94;2597508;22;20320;-82
2023/05/07 06:11:33;;;;;;;5.00;3.90;;;;;;;10.49;100.00;92934.41;2619561;22;20085;-83
2023/05/07 06:13:24;;;;;;;4.53;3.72;;;;;;;10.50;100.00;92931.34;2609898;22;20094;-84
2023/05/07 06:14:37;;;;;;;5.18;4.15;;;;;;;10.52;100.00;92920.97;2626671;22;20009;-84
2023/05/07 06:15:50;;;;;;;5.60;4.55;;;;;;;10.58;100.00;92927.31;2621395;22;20007;-84
2023/05/07 06:17:20;;;;;;;7.30;4.50;;;;;;;10.75;100.00;92930.69;2607929;22;20003;-83
2023/05/07 06:18:28;;;;;;;6.50;5.50;;;;;;;10.95;100.00;92927.91;2608956;22;20003;-84
2023/05/07 06:19:37;;;;;;;12.52;8.07;;;;;;;11.10;100.00;92929.03;2597366;22;20079;-84
2023/05/07 06:20:54;;;;;;;15.02;8.13;;;;;;;11.02;100.00;92932.34;2609311;22;20068;-84
2023/05/07 06:22:12;;;;;;;14.88;9.18;;;;;;;10.92;100.00;92923.41;2602379;22;20059;-84
2023/05/07 06:23:20;;;;;;;17.17;9.15;;;;;;;10.99;100.00;92930.50;2598222;22;20038;-84
2023/05/07 06:24:46;;;;;;;8.88;7.55;;;;;;;11.09;100.00;92927.53;2597688;22;20450;-85
2023/05/07 06:26:06;;;;;;;8.00;6.07;;;;;;;11.10;100.00;92931.69;2593923;22;20391;-84
2023/05/07 06:27:34;;;;;;;9.02;4.90;;;;;;;11.18;100.00;92926.16;2600043;22;20496;-84
2023/05/07 06:28:49;;;;;;;6.82;5.20;;;;;;;11.15;100.00;92937.69;2607609;22;20011;-85
2023/05/07 06:30:11;;;;;;;6.18;5.00;;;;;;;11.21;100.00;92930.69;2611879;22;20005;-84
2023/05/07 06:32:02;;;;;;;10.82;5.63;;;;;;;11.20;100.00;92935.28;2612979;22;20431;-83
2023/05/07 06:33:07;;;;;;;8.98;5.15;;;;;;;11.31;100.00;92938.41;2580344;23;20011;-85
2023/05/07 06:34:32;;;;;;;6.20;5.05;;;;;;;11.29;100.00;92931.97;2558377;23;20013;-84
2023/05/07 06:35:51;;;;;;;8.18;5.28;;;;;;;11.28;100.00;92943.84;2551820;23;20032;-84
2023/05/07 06:37:15;;;;;;;7.95;5.40;;;;;;;11.30;100.00;92944.19;2559545;23;20011;-84
2023/05/07 06:38:38;;;;;;;16.48;6.20;;;;;;;11.37;100.00;92941.31;2582235;22;20438;-84
2023/05/07 06:39:56;;;;;;;6.78;5.32;;;;;;;11.40;100.00;92934.34;2592090;22;20043;-83
2023/05/07 06:41:02;;;;;;;6.68;6.07;;;;;;;11.44;100.00;92935.00;2587093;22;19996;-84
2023/05/07 06:42:22;;;;;;;6.70;6.10;;;;;;;11.47;100.00;92936.84;2591203;22;20022;-84
2023/05/07 06:43:30;;;;;;;9.95;6.50;;;;;;;11.45;100.00;92947.22;2588149;22;20008;-84
2023/05/07 06:44:38;;;;;;;11.52;6.40;;;;;;;11.35;100.00;92949.00;2584797;22;20003;-84
2023/05/07 06:45:39;;;;;;;8.27;6.05;;;;;;;11.44;100.00;92938.44;2584854;22;20008;-83
2023/05/07 06:46:45;;;;;;;9.70;6.25;;;;;;;11.54;100.00;92941.97;2596675;22;19999;-83
2023/05/07 06:48:02;;;;;;;12.65;6.70;;;;;;;11.64;100.00;92940.19;2597491;22;20007;-83
2023/05/07 06:49:16;;;;;;;8.98;6.60;;;;;;;11.70;100.00;92938.47;2587039;22;20028;-83
2023/05/07 06:50:21;;;;;;;10.70;7.40;;;;;;;11.76;100.00;92937.50;2586505;22;20050;-84
2023/05/07 06:51:42;;;;;;;9.25;7.45;;;;;;;11.97;100.00;92943.47;2579213;22;20008;-84
2023/05/07 06:53:01;;;;;;;13.38;7.60;;;;;;;12.06;100.00;92938.94;2576753;22;20078;-84
2023/05/07 06:54:09;;;;;;;10.02;7.20;;;;;;;12.14;100.00;92944.09;2600337;22;20019;-83
2023/05/07 06:55:19;;;;;;;10.88;7.97;;;;;;;12.22;100.00;92937.34;2585100;22;20091;-83
2023/05/07 06:56:26;;;;;;;12.75;7.72;;;;;;;12.27;100.00;92939.50;2598305;22;20015;-82
2023/05/07 06:57:43;;;;;;;13.32;7.82;;;;;;;12.32;100.00;92946.97;2598122;22;20012;-84
2023/05/07 06:58:51;;;;;;;14.88;8.85;;;;;;;12.41;100.00;92946.34;2587681;22;20000;-84
2023/05/07 06:59:58;;;;;;;14.45;8.48;;;;;;;12.40;100.00;92942.91;2586620;22;20031;-83
2023/05/07 07:01:05;;;;;;;13.00;7.65;;;;;;;12.49;100.00;92940.31;2582487;22;20034;-83
2023/05/07 07:02:15;;;;;;;12.85;8.20;;;;;;;12.56;100.00;92942.78;2584886;22;20004;-83
2023/05/07 07:03:38;;;;;;;16.25;8.35;;;;;;;12.67;100.00;92939.00;2600588;22;20023;-83
2023/05/07 07:04:44;;;;;;;9.85;8.20;;;;;;;12.72;100.00;92947.22;2585071;22;20008;-83
2023/05/07 07:05:53;;;;;;;9.45;7.93;;;;;;;12.78;100.00;92944.78;2572619;22;20000;-82